Time;durP1;ratioP1;P1;durP2;ratioP2;P2;SDS_P1;SDS_P2;PMS_P1;PMS_P2;Temp;Humidity;BMP_temperature;BMP_pressure;BME280_temperature;BME280_humidity;BME280_pressure;Samples;Min_cycle;Max_cycle;Signal;HPM_P1;HPM_P2
2023/11/04 00:01:54;;;;;;;3.90;1.40;;;;;;;;;;10532764;28;20085;-76
2023/11/04 00:07:00;;;;;;;1.23;0.60;;;;;;;;;;10530247;28;20150;-75
2023/11/04 00:12:03;;;;;;;0.28;0.28;;;;;;;;;;10527971;28;20035;-76
2023/11/04 00:17:05;;;;;;;0.40;0.40;;;;;;;;;;10528282;28;20048;-76
2023/11/04 00:22:10;;;;;;;1.05;0.40;;;;;;;;;;10527158;28;20122;-77
2023/11/04 00:27:12;;;;;;;;;;;;;;;;;;10534151;28;20504;-77
2023/11/04 00:32:15;;;;;;;2.17;1.17;;;;;;;;;;10529146;28;19920;-76
2023/11/04 00:37:19;;;;;;;0.45;0.25;;;;;;;;;;10524809;28;20139;-76
2023/11/04 00:42:24;;;;;;;2.67;1.25;;;;;;;;;;10528839;28;20059;-76
2023/11/04 00:47:27;;;;;;;1.08;0.63;;;;;;;;;;10528994;28;20047;-76
2023/11/04 00:52:31;;;;;;;2.95;0.90;;;;;;;;;;10530983;28;20044;-76
2023/11/04 00:57:34;;;;;;;;;;;;;;;;;;10527162;28;20040;-77
2023/11/04 01:02:36;;;;;;;1.67;1.05;;;;;;;;;;10532564;28;19970;-77
2023/11/04 01:07:40;;;;;;;0.85;0.70;;;;;;;;;;10527900;28;20079;-77
2023/11/04 01:12:43;;;;;;;1.02;0.70;;;;;;;;;;10528070;28;20036;-79
2023/11/04 01:17:46;;;;;;;1.05;0.65;;;;;;;;;;10525923;28;20416;-77
2023/11/04 01:22:50;;;;;;;1.98;0.90;;;;;;;;;;10519954;28;20043;-77
2023/11/04 01:27:53;;;;;;;0.55;0.20;;;;;;;;;;10518212;28;20903;-78
2023/11/04 01:32:55;;;;;;;2.20;0.70;;;;;;;;;;10525028;28;20054;-76
2023/11/04 01:38:00;;;;;;;2.13;1.20;;;;;;;;;;10526886;28;20541;-75
2023/11/04 01:43:02;;;;;;;1.92;0.95;;;;;;;;;;10525315;28;20036;-75
2023/11/04 01:48:05;;;;;;;2.65;0.47;;;;;;;;;;10529285;28;20097;-75
2023/11/04 01:53:10;;;;;;;1.40;0.80;;;;;;;;;;10524737;28;20378;-75
2023/11/04 01:58:12;;;;;;;;;;;;;;;;;;10520846;28;20041;-76
2023/11/04 02:03:17;;;;;;;3.00;1.38;;;;;;;;;;10524053;28;19934;-75
2023/11/04 02:08:21;;;;;;;3.70;0.90;;;;;;;;;;10526080;28;20044;-76
2023/11/04 02:13:23;;;;;;;;;;;;;;;;;;10528326;28;20529;-77
2023/11/04 02:18:30;;;;;;;0.90;0.50;;;;;;;;;;10518388;28;19920;-77
2023/11/04 02:23:34;;;;;;;0.73;0.70;;;;;;;;;;10524820;28;20115;-76
2023/11/04 02:28:36;;;;;;;0.95;0.75;;;;;;;;;;10526074;28;20043;-76
2023/11/04 02:33:41;;;;;;;2.47;0.77;;;;;;;;;;10532205;28;20032;-75
2023/11/04 02:38:45;;;;;;;0.30;0.20;;;;;;;;;;10523694;28;20229;-76
2023/11/04 02:43:48;;;;;;;1.25;0.93;;;;;;;;;;10523127;28;20039;-75
2023/11/04 02:48:50;;;;;;;0.17;0.17;;;;;;;;;;10522739;28;20043;-75
2023/11/04 02:53:55;;;;;;;5.97;0.52;;;;;;;;;;10522597;28;20074;-75
2023/11/04 02:58:57;;;;;;;1.00;0.57;;;;;;;;;;10528732;28;20067;-77
2023/11/04 03:04:02;;;;;;;2.28;1.15;;;;;;;;;;10530203;28;20058;-76
2023/11/04 03:09:06;;;;;;;2.47;0.90;;;;;;;;;;10529531;28;20036;-77
2023/11/04 03:14:10;;;;;;;0.70;0.68;;;;;;;;;;10531055;28;20403;-76
2023/11/04 03:19:16;;;;;;;2.63;0.95;;;;;;;;;;10535591;28;20051;-77
2023/11/04 03:24:19;;;;;;;2.08;1.40;;;;;;;;;;10536937;28;20180;-76
2023/11/04 03:29:22;;;;;;;0.85;0.40;;;;;;;;;;10538998;28;20092;-77
2023/11/04 03:34:25;;;;;;;3.92;0.80;;;;;;;;;;10525782;28;20077;-76
2023/11/04 03:39:29;;;;;;;1.50;1.00;;;;;;;;;;10532437;28;20046;-76
2023/11/04 03:44:32;;;;;;;1.05;0.60;;;;;;;;;;10534030;28;20090;-74
2023/11/04 03:49:35;;;;;;;0.50;0.50;;;;;;;;;;10529897;28;20645;-77
2023/11/04 03:54:39;;;;;;;1.73;0.80;;;;;;;;;;10526420;28;20051;-78
2023/11/04 03:59:42;;;;;;;0.43;0.43;;;;;;;;;;10520760;28;20097;-77
2023/11/04 04:04:45;;;;;;;2.58;0.50;;;;;;;;;;10535768;28;20119;-76
2023/11/04 04:09:49;;;;;;;1.25;0.32;;;;;;;;;;10524650;28;20075;-77
2023/11/04 04:14:51;;;;;;;;;;;;;;;;;;10522595;28;20059;-77
2023/11/04 04:19:54;;;;;;;0.77;0.65;;;;;;;;;;10527979;28;19935;-77
2023/11/04 04:24:58;;;;;;;0.63;0.55;;;;;;;;;;10534342;28;20068;-77
2023/11/04 04:30:01;;;;;;;1.23;0.32;;;;;;;;;;10526712;28;20182;-78
2023/11/04 04:35:04;;;;;;;0.93;0.55;;;;;;;;;;10529083;28;20047;-77
2023/11/04 04:40:09;;;;;;;0.98;0.40;;;;;;;;;;10528464;28;20610;-76
2023/11/04 04:45:12;;;;;;;0.75;0.75;;;;;;;;;;10531671;28;20522;-76
2023/11/04 04:50:15;;;;;;;1.23;0.52;;;;;;;;;;10524685;28;20400;-76
2023/11/04 04:55:20;;;;;;;0.47;0.38;;;;;;;;;;10533152;28;20040;-77
2023/11/04 05:00:23;;;;;;;1.10;0.68;;;;;;;;;;10530803;28;20180;-77
2023/11/04 05:05:26;;;;;;;3.30;0.80;;;;;;;;;;10531954;28;20046;-77
2023/11/04 05:10:30;;;;;;;0.73;0.28;;;;;;;;;;10528037;28;20390;-77
2023/11/04 05:15:32;;;;;;;0.40;0.40;;;;;;;;;;10526567;28;20111;-75
2023/11/04 05:20:35;;;;;;;0.73;0.47;;;;;;;;;;10529301;28;20036;-76
2023/11/04 05:25:39;;;;;;;0.75;0.40;;;;;;;;;;10517240;28;20028;-77
2023/11/04 05:30:42;;;;;;;1.08;0.60;;;;;;;;;;10523028;28;20138;-76
2023/11/04 05:35:44;;;;;;;0.47;0.47;;;;;;;;;;10521427;28;20044;-77
2023/11/04 05:40:48;;;;;;;1.95;0.73;;;;;;;;;;10528002;28;20128;-77
2023/11/04 05:45:51;;;;;;;1.40;0.77;;;;;;;;;;10519099;28;20070;-78
2023/11/04 05:50:54;;;;;;;1.10;0.95;;;;;;;;;;10516780;28;20425;-77
2023/11/04 05:55:58;;;;;;;0.57;0.50;;;;;;;;;;10521122;28;20920;-76
2023/11/04 06:01:01;;;;;;;0.35;0.32;;;;;;;;;;10524706;28;20075;-77
2023/11/04 06:06:04;;;;;;;0.68;0.32;;;;;;;;;;10521897;28;20028;-78
2023/11/04 06:11:08;;;;;;;0.52;0.43;;;;;;;;;;10522160;28;20139;-77
2023/11/04 06:16:10;;;;;;;1.65;1.05;;;;;;;;;;10522614;28;20040;-76
2023/11/04 06:21:15;;;;;;;3.33;0.82;;;;;;;;;;10521540;28;20072;-77
2023/11/04 06:26:17;;;;;;;;;;;;;;;;;;10532565;28;20513;-77
2023/11/04 06:31:22;;;;;;;1.25;0.82;;;;;;;;;;10533760;28;19919;-77
2023/11/04 06:36:31;;;;;;;1.55;0.95;;;;;;;;;;10526047;28;20055;-77
2023/11/04 06:41:34;;;;;;;0.95;0.70;;;;;;;;;;10530979;28;20107;-76
2023/11/04 06:46:39;;;;;;;0.50;0.50;;;;;;;;;;10532602;28;20040;-77
2023/11/04 06:51:42;;;;;;;1.02;0.82;;;;;;;;;;10533442;28;20044;-77
2023/11/04 06:56:45;;;;;;;0.53;0.53;;;;;;;;;;10533776;28;20043;-78
2023/11/04 07:01:50;;;;;;;0.70;0.70;;;;;;;;;;10533089;28;20293;-78
2023/11/04 07:06:53;;;;;;;0.82;0.70;;;;;;;;;;10527834;28;20051;-78
2023/11/04 07:11:56;;;;;;;1.67;0.97;;;;;;;;;;10530218;28;20050;-78
2023/11/04 07:17:00;;;;;;;1.27;0.90;;;;;;;;;;10531469;28;20126;-78
2023/11/04 07:22:02;;;;;;;;;;;;;;;;;;10532469;28;20056;-77
2023/11/04 07:27:05;;;;;;;3.42;0.90;;;;;;;;;;10531015;28;19924;-77
2023/11/04 07:32:10;;;;;;;1.63;1.35;;;;;;;;;;10533457;28;20545;-76
2023/11/04 07:37:13;;;;;;;1.48;1.00;;;;;;;;;;10511391;28;20036;-77
2023/11/04 07:42:15;;;;;;;2.63;1.33;;;;;;;;;;10530441;28;20390;-78
2023/11/04 07:47:19;;;;;;;1.23;1.13;;;;;;;;;;10530823;28;20046;-78
2023/11/04 07:52:22;;;;;;;2.13;1.58;;;;;;;;;;10530624;28;20420;-78
2023/11/04 07:57:25;;;;;;;1.60;1.20;;;;;;;;;;10505208;28;20121;-78
2023/11/04 08:02:29;;;;;;;1.30;1.20;;;;;;;;;;10525690;28;20074;-78
2023/11/04 08:07:32;;;;;;;1.20;1.10;;;;;;;;;;10528619;28;20117;-78
2023/11/04 08:12:34;;;;;;;1.85;1.50;;;;;;;;;;10519856;28;20138;-78
2023/11/04 08:17:39;;;;;;;1.70;1.60;;;;;;;;;;10521094;28;20040;-78
2023/11/04 08:22:41;;;;;;;1.10;1.00;;;;;;;;;;10519343;28;20043;-80
2023/11/04 08:27:44;;;;;;;1.50;1.40;;;;;;;;;;10523761;28;20175;-81
2023/11/04 08:32:48;;;;;;;1.90;1.50;;;;;;;;;;10520311;28;20032;-82
2023/11/04 08:37:52;;;;;;;1.73;1.60;;;;;;;;;;10523514;28;20328;-80
2023/11/04 08:42:54;;;;;;;;;;;;;;;;;;10521348;28;20044;-80
2023/11/04 08:47:58;;;;;;;1.38;1.27;;;;;;;;;;10521517;28;20131;-81
2023/11/04 08:53:01;;;;;;;1.20;1.20;;;;;;;;;;10521749;28;20143;-81
2023/11/04 08:58:03;;;;;;;1.63;1.48;;;;;;;;;;10520260;28;20627;-82
2023/11/04 09:03:08;;;;;;;1.38;1.30;;;;;;;;;;10525315;28;20043;-82
2023/11/04 09:08:11;;;;;;;1.10;1.10;;;;;;;;;;10525335;28;20445;-82
2023/11/04 09:13:13;;;;;;;;;;;;;;;;;;10521910;28;20127;-81
2023/11/04 09:18:17;;;;;;;1.40;1.30;;;;;;;;;;10514005;28;20006;-80
2023/11/04 09:23:21;;;;;;;1.30;0.85;;;;;;;;;;10507280;28;20048;-81
2023/11/04 09:28:24;;;;;;;1.30;1.20;;;;;;;;;;10520998;28;20460;-81
2023/11/04 09:33:30;;;;;;;1.20;1.20;;;;;;;;;;10513760;28;20040;-81
2023/11/04 09:38:34;;;;;;;2.42;1.42;;;;;;;;;;10521704;28;20040;-80
2023/11/04 09:43:36;;;;;;;1.20;1.20;;;;;;;;;;10513793;28;20051;-79
2023/11/04 09:48:40;;;;;;;1.35;1.25;;;;;;;;;;10510728;28;20125;-78
2023/11/04 09:53:53;;;;;;;1.13;1.00;;;;;;;;;;10511629;28;20048;-79
2023/11/04 09:58:56;;;;;;;1.08;1.00;;;;;;;;;;10508339;28;20040;-80
2023/11/04 10:04:00;;;;;;;1.55;1.45;;;;;;;;;;10522317;28;20082;-79
2023/11/04 10:09:03;;;;;;;1.80;1.20;;;;;;;;;;10516573;28;20054;-81
2023/11/04 10:14:06;;;;;;;0.95;0.95;;;;;;;;;;10520490;28;20036;-79
2023/11/04 10:19:11;;;;;;;0.90;0.90;;;;;;;;;;10517684;28;20151;-79
2023/11/04 10:24:14;;;;;;;1.58;0.70;;;;;;;;;;10519105;28;20055;-79
2023/11/04 10:29:16;;;;;;;1.60;1.50;;;;;;;;;;10508828;28;20038;-79
2023/11/04 10:34:24;;;;;;;1.10;1.00;;;;;;;;;;10513804;28;20127;-78
2023/11/04 10:39:29;;;;;;;1.60;1.50;;;;;;;;;;10515722;28;20052;-79
2023/11/04 10:44:34;;;;;;;1.65;1.55;;;;;;;;;;10515312;28;20047;-79
2023/11/04 10:49:47;;;;;;;2.13;1.38;;;;;;;;;;10516529;28;20379;-80
2023/11/04 10:54:54;;;;;;;1.55;1.40;;;;;;;;;;10518879;28;20120;-80
2023/11/04 11:00:00;;;;;;;1.35;1.30;;;;;;;;;;10515377;28;20067;-80
2023/11/04 11:05:05;;;;;;;1.23;1.10;;;;;;;;;;10520681;28;20063;-79
2023/11/04 11:10:11;;;;;;;1.83;1.38;;;;;;;;;;10524569;28;20055;-81
2023/11/04 11:15:15;;;;;;;1.00;1.00;;;;;;;;;;10509200;28;20039;-80
2023/11/04 11:20:29;;;;;;;0.47;0.47;;;;;;;;;;10524351;28;20532;-80
2023/11/04 11:25:32;;;;;;;;;;;;;;;;;;10523764;28;20051;-78
2023/11/04 11:30:37;;;;;;;0.70;0.65;;;;;;;;;;10522467;28;19931;-79
2023/11/04 11:35:56;;;;;;;0.80;0.77;;;;;;;;;;10524351;28;20051;-79
2023/11/04 11:41:03;;;;;;;0.82;0.60;;;;;;;;;;10527744;28;20052;-80
2023/11/04 11:46:06;;;;;;;0.60;0.60;;;;;;;;;;10527077;28;20044;-81
2023/11/04 11:51:11;;;;;;;0.95;0.95;;;;;;;;;;10519485;28;20144;-80
2023/11/04 11:56:15;;;;;;;0.75;0.57;;;;;;;;;;10526142;28;20043;-80
2023/11/04 12:01:19;;;;;;;0.60;0.60;;;;;;;;;;10503572;28;20040;-79
2023/11/04 12:06:23;;;;;;;1.55;0.35;;;;;;;;;;10518232;28;20044;-80
2023/11/04 12:11:26;;;;;;;1.00;0.52;;;;;;;;;;10519774;28;20127;-79
2023/11/04 12:16:32;;;;;;;2.35;0.40;;;;;;;;;;10513648;28;20050;-79
2023/11/04 12:21:38;;;;;;;0.73;0.50;;;;;;;;;;10501294;28;20554;-79
2023/11/04 12:26:41;;;;;;;2.05;0.45;;;;;;;;;;10524418;28;20040;-77
2023/11/04 12:31:44;;;;;;;0.45;0.40;;;;;;;;;;10528927;28;20035;-78
2023/11/04 12:36:48;;;;;;;0.75;0.50;;;;;;;;;;10520824;28;20072;-78
2023/11/04 12:41:50;;;;;;;;;;;;;;;;;;10523344;28;20516;-78
2023/11/04 12:46:53;;;;;;;0.50;0.50;;;;;;;;;;10522543;28;19990;-78
2023/11/04 12:51:58;;;;;;;4.80;0.93;;;;;;;;;;10517859;28;20050;-78
2023/11/04 12:57:01;;;;;;;0.75;0.68;;;;;;;;;;10514963;28;20067;-78
2023/11/04 13:02:04;;;;;;;1.13;0.40;;;;;;;;;;10515851;28;20123;-79
2023/11/04 13:07:07;;;;;;;0.95;0.38;;;;;;;;;;10518783;28;20333;-77
2023/11/04 13:12:10;;;;;;;1.73;0.52;;;;;;;;;;10519619;28;20048;-79
2023/11/04 13:17:13;;;;;;;0.40;0.40;;;;;;;;;;10520079;28;20541;-78
2023/11/04 13:22:18;;;;;;;0.93;0.65;;;;;;;;;;10515881;28;20126;-79
2023/11/04 13:27:21;;;;;;;1.15;0.50;;;;;;;;;;10523229;28;20036;-80
2023/11/04 13:32:24;;;;;;;1.43;0.43;;;;;;;;;;10521573;28;20054;-78
2023/11/04 13:37:29;;;;;;;0.50;0.50;;;;;;;;;;10518966;28;20328;-79
2023/11/04 13:42:32;;;;;;;1.33;1.00;;;;;;;;;;10521075;28;20054;-78
2023/11/04 13:47:36;;;;;;;0.45;0.40;;;;;;;;;;10516888;28;20149;-78
2023/11/04 13:52:42;;;;;;;2.22;0.40;;;;;;;;;;10519333;28;20067;-78
2023/11/04 13:57:45;;;;;;;2.05;0.57;;;;;;;;;;10521795;28;20040;-80
2023/11/04 14:02:48;;;;;;;0.30;0.17;;;;;;;;;;10513610;28;20141;-79
2023/11/04 14:07:52;;;;;;;0.47;0.40;;;;;;;;;;10517313;28;20160;-78
2023/11/04 14:12:55;;;;;;;0.57;0.43;;;;;;;;;;10516747;28;20629;-78
2023/11/04 14:17:58;;;;;;;1.15;0.90;;;;;;;;;;10523034;28;20050;-78
2023/11/04 14:23:04;;;;;;;1.23;0.50;;;;;;;;;;10517591;28;20079;-78
2023/11/04 14:28:06;;;;;;;0.50;0.40;;;;;;;;;;10520047;28;20105;-77
2023/11/04 14:33:09;;;;;;;2.15;0.80;;;;;;;;;;10521235;28;20142;-78
2023/11/04 14:38:13;;;;;;;1.00;0.90;;;;;;;;;;10509880;28;20142;-78
2023/11/04 14:43:16;;;;;;;;;;;;;;;;;;10535221;28;20040;-78
2023/11/04 14:48:18;;;;;;;0.50;0.43;;;;;;;;;;10526742;28;20237;-79
2023/11/04 14:53:23;;;;;;;2.08;0.75;;;;;;;;;;10525279;28;20182;-80
2023/11/04 14:58:26;;;;;;;0.50;0.50;;;;;;;;;;10523871;28;20032;-78
2023/11/04 15:03:28;;;;;;;1.38;0.43;;;;;;;;;;10523227;28;20554;-78
2023/11/04 15:08:32;;;;;;;1.15;0.60;;;;;;;;;;10527487;28;20059;-79
2023/11/04 15:13:35;;;;;;;0.60;0.50;;;;;;;;;;10520532;28;20454;-79
2023/11/04 15:18:38;;;;;;;1.75;1.10;;;;;;;;;;10530221;28;20044;-79
2023/11/04 15:23:42;;;;;;;0.90;0.47;;;;;;;;;;10519459;28;20039;-79
2023/11/04 15:28:45;;;;;;;1.00;0.90;;;;;;;;;;10526956;28;20052;-79
2023/11/04 15:33:47;;;;;;;2.10;0.80;;;;;;;;;;10527573;28;20146;-78
2023/11/04 15:38:52;;;;;;;1.88;0.70;;;;;;;;;;10529312;28;20133;-77
2023/11/04 15:43:54;;;;;;;2.58;1.20;;;;;;;;;;10531958;28;20556;-77
2023/11/04 15:48:57;;;;;;;1.27;0.80;;;;;;;;;;10522150;28;20523;-78
2023/11/04 15:54:01;;;;;;;1.67;1.10;;;;;;;;;;10513631;28;20617;-78
2023/11/04 15:59:04;;;;;;;;;;;;;;;;;;10522996;28;20059;-78
2023/11/04 16:04:06;;;;;;;3.08;1.60;;;;;;;;;;10525740;28;20011;-78
2023/11/04 16:09:10;;;;;;;2.92;1.10;;;;;;;;;;10507551;28;20282;-79
2023/11/04 16:14:14;;;;;;;1.30;0.90;;;;;;;;;;10522059;28;20090;-79
2023/11/04 16:19:19;;;;;;;4.93;0.90;;;;;;;;;;10519788;28;20052;-79
2023/11/04 16:24:23;;;;;;;0.45;0.40;;;;;;;;;;10524064;28;20047;-80
2023/11/04 16:29:30;;;;;;;2.67;1.10;;;;;;;;;;10517469;28;20109;-81
2023/11/04 16:34:33;;;;;;;2.78;0.98;;;;;;;;;;10537403;28;20052;-80
2023/11/04 16:39:40;;;;;;;6.50;0.60;;;;;;;;;;10526462;28;20461;-79
2023/11/04 16:44:43;;;;;;;3.17;1.40;;;;;;;;;;10528083;28;20039;-79
2023/11/04 16:49:46;;;;;;;4.90;2.03;;;;;;;;;;10526484;28;20024;-79
2023/11/04 16:54:50;;;;;;;2.78;1.42;;;;;;;;;;10522424;28;20048;-79
2023/11/04 16:59:52;;;;;;;5.25;1.73;;;;;;;;;;10526682;28;20096;-79
2023/11/04 17:04:55;;;;;;;3.05;1.50;;;;;;;;;;10524013;28;20101;-78
2023/11/04 17:10:00;;;;;;;1.42;0.98;;;;;;;;;;10521566;28;20047;-79
2023/11/04 17:15:04;;;;;;;2.72;1.65;;;;;;;;;;10519738;28;20496;-79
2023/11/04 17:20:07;;;;;;;3.70;1.33;;;;;;;;;;10520925;28;20048;-78
2023/11/04 17:25:12;;;;;;;4.95;1.60;;;;;;;;;;10522043;28;20051;-79
2023/11/04 17:30:14;;;;;;;;;;;;;;;;;;10523927;28;20044;-78
2023/11/04 17:35:18;;;;;;;6.20;2.15;;;;;;;;;;10527124;28;19978;-79
2023/11/04 17:40:22;;;;;;;4.70;1.83;;;;;;;;;;10525890;28;20043;-80
2023/11/04 17:45:25;;;;;;;4.63;2.40;;;;;;;;;;10523313;28;20040;-79
2023/11/04 17:50:28;;;;;;;5.47;2.50;;;;;;;;;;10531183;28;20478;-78
2023/11/04 17:55:32;;;;;;;6.80;2.13;;;;;;;;;;10529238;28;20096;-77
2023/11/04 18:00:35;;;;;;;5.68;1.55;;;;;;;;;;10527307;28;20063;-79
2023/11/04 18:05:37;;;;;;;17.75;5.45;;;;;;;;;;10528341;28;20166;-79
2023/11/04 18:10:42;;;;;;;8.93;2.87;;;;;;;;;;10522682;28;20036;-79
2023/11/04 18:15:45;;;;;;;5.63;2.53;;;;;;;;;;10523748;28;20468;-79
2023/11/04 18:20:47;;;;;;;6.55;2.22;;;;;;;;;;10527918;28;20040;-79
2023/11/04 18:25:51;;;;;;;3.67;1.65;;;;;;;;;;10537815;28;20618;-79
2023/11/04 18:30:54;;;;;;;4.60;1.50;;;;;;;;;;10537637;28;20043;-78
2023/11/04 18:35:58;;;;;;;3.40;1.42;;;;;;;;;;10540227;28;20040;-78
2023/11/04 18:41:15;;;;;;;2.20;1.40;;;;;;;;;;10538045;28;20036;-78
2023/11/04 18:46:18;;;;;;;1.65;0.73;;;;;;;;;;10532132;28;20528;-77
2023/11/04 18:51:21;;;;;;;3.28;1.45;;;;;;;;;;10537289;28;20032;-78
2023/11/04 18:56:25;;;;;;;6.78;2.60;;;;;;;;;;10539213;28;20351;-79
2023/11/04 19:01:27;;;;;;;4.13;1.90;;;;;;;;;;10535610;28;20054;-78
2023/11/04 19:06:30;;;;;;;7.28;2.17;;;;;;;;;;10533414;28;20044;-78
2023/11/04 19:11:35;;;;;;;3.05;1.60;;;;;;;;;;10534864;28;20119;-78
2023/11/04 19:16:37;;;;;;;;;;;;;;;;;;10528542;28;20163;-77
2023/11/04 19:21:40;;;;;;;1.73;1.08;;;;;;;;;;10536700;28;19934;-78
2023/11/04 19:26:44;;;;;;;1.98;1.00;;;;;;;;;;10537999;28;20496;-79
2023/11/04 19:31:46;;;;;;;1.25;0.77;;;;;;;;;;10528874;28;20116;-78
2023/11/04 19:36:50;;;;;;;3.75;1.73;;;;;;;;;;10528697;28;20125;-79
2023/11/04 19:41:54;;;;;;;3.75;2.25;;;;;;;;;;10532082;28;20127;-79
2023/11/04 19:46:57;;;;;;;1.98;1.10;;;;;;;;;;10522965;28;20047;-79
2023/11/04 19:52:00;;;;;;;2.63;1.33;;;;;;;;;;10527005;28;20050;-80
2023/11/04 19:57:05;;;;;;;0.85;0.40;;;;;;;;;;10512244;28;20129;-78
2023/11/04 20:02:07;;;;;;;1.73;0.95;;;;;;;;;;10532814;28;20043;-79
2023/11/04 20:07:10;;;;;;;9.68;2.85;;;;;;;;;;10531753;28;20055;-80
2023/11/04 20:12:15;;;;;;;5.90;2.97;;;;;;;;;;10533508;28;20516;-80
2023/11/04 20:17:18;;;;;;;;;;;;;;;;;;10527117;28;20046;-79
2023/11/04 20:22:21;;;;;;;5.63;2.17;;;;;;;;;;10533527;28;19919;-79
2023/11/04 20:27:27;;;;;;;3.50;1.73;;;;;;;;;;10536251;28;20056;-80
2023/11/04 20:32:30;;;;;;;4.68;2.03;;;;;;;;;;10531325;28;20040;-80
2023/11/04 20:37:33;;;;;;;1.67;0.90;;;;;;;;;;10528426;28;20066;-79
2023/11/04 20:42:38;;;;;;;2.30;1.15;;;;;;;;;;10524825;28;20052;-78
2023/11/04 20:47:40;;;;;;;3.97;1.48;;;;;;;;;;10509000;28;20071;-78
2023/11/04 20:52:43;;;;;;;1.00;0.77;;;;;;;;;;10524516;28;20047;-78
2023/11/04 20:57:47;;;;;;;2.17;1.10;;;;;;;;;;10528306;28;20032;-79
2023/11/04 21:02:50;;;;;;;;;;;;;;;;;;10545456;27;20127;-79
2023/11/04 21:07:53;;;;;;;0.68;0.25;;;;;;;;;;10523991;28;19950;-80
2023/11/04 21:12:57;;;;;;;2.83;0.75;;;;;;;;;;10520879;28;20388;-79
2023/11/04 21:18:01;;;;;;;1.85;0.93;;;;;;;;;;10523604;28;20063;-79
2023/11/04 21:23:04;;;;;;;2.08;0.90;;;;;;;;;;10525579;28;20031;-79
2023/11/04 21:28:10;;;;;;;0.73;0.60;;;;;;;;;;10528087;28;20257;-78
2023/11/04 21:33:13;;;;;;;0.75;0.70;;;;;;;;;;10517968;28;20036;-78
2023/11/04 21:38:16;;;;;;;1.85;0.82;;;;;;;;;;10524516;28;20035;-78
2023/11/04 21:43:20;;;;;;;1.65;0.85;;;;;;;;;;10523016;28;20053;-79
2023/11/04 21:48:23;;;;;;;;;;;;;;;;;;10524311;28;20662;-79
2023/11/04 21:53:25;;;;;;;1.05;0.47;;;;;;;;;;10526388;28;19928;-78
2023/11/04 21:58:30;;;;;;;2.38;0.60;;;;;;;;;;10522733;28;20123;-78
2023/11/04 22:03:33;;;;;;;0.95;0.65;;;;;;;;;;10526034;28;20048;-79
2023/11/04 22:08:36;;;;;;;1.37;0.80;;;;;;;;;;10527920;28;20039;-78
2023/11/04 22:13:40;;;;;;;0.73;0.63;;;;;;;;;;10527231;28;20123;-78
2023/11/04 22:18:43;;;;;;;2.67;1.10;;;;;;;;;;10529152;28;20048;-78
2023/11/04 22:23:46;;;;;;;1.77;0.60;;;;;;;;;;10522122;28;20063;-79
2023/11/04 22:28:50;;;;;;;0.88;0.60;;;;;;;;;;10517819;28;20059;-78
2023/11/04 22:33:52;;;;;;;1.15;0.60;;;;;;;;;;10525945;28;20072;-78
2023/11/04 22:38:56;;;;;;;1.87;0.53;;;;;;;;;;10527792;28;20067;-78
2023/11/04 22:44:00;;;;;;;0.28;0.28;;;;;;;;;;10520159;28;20787;-78
2023/11/04 22:49:03;;;;;;;0.85;0.50;;;;;;;;;;10523864;28;20068;-78
2023/11/04 22:54:05;;;;;;;2.33;0.30;;;;;;;;;;10525040;28;20055;-78
2023/11/04 22:59:10;;;;;;;1.98;0.50;;;;;;;;;;10507431;28;20040;-78
2023/11/04 23:04:13;;;;;;;1.05;0.52;;;;;;;;;;10518491;28;20063;-78
2023/11/04 23:09:16;;;;;;;0.10;0.10;;;;;;;;;;10533069;28;20044;-79
2023/11/04 23:14:20;;;;;;;0.13;0.13;;;;;;;;;;10522408;28;20049;-77
2023/11/04 23:19:22;;;;;;;;;;;;;;;;;;10522352;28;20518;-77
2023/11/04 23:24:25;;;;;;;0.65;0.30;;;;;;;;;;10522441;28;19930;-77
2023/11/04 23:29:29;;;;;;;0.13;0.13;;;;;;;;;;10514397;28;20135;-77
2023/11/04 23:34:32;;;;;;;0.47;0.38;;;;;;;;;;10515677;28;20508;-77
2023/11/04 23:39:35;;;;;;;0.70;0.20;;;;;;;;;;10521105;28;20465;-75
2023/11/04 23:44:39;;;;;;;2.37;0.97;;;;;;;;;;10513671;28;20047;-74
2023/11/04 23:49:42;;;;;;;;;;;;;;;;;;10518239;28;20416;-75
2023/11/04 23:54:44;;;;;;;0.30;0.20;;;;;;;;;;10518637;28;19927;-76
2023/11/04 23:59:48;;;;;;;0.95;0.30;;;;;;;;;;10519827;28;20340;-76
